createdAt,value
2019-03-16T00:00:15.991Z,100.00
2019-03-16T00:02:43.039Z,100.00
2019-03-16T00:05:10.121Z,100.00
2019-03-16T00:07:37.179Z,100.00
2019-03-16T00:10:04.270Z,100.00
2019-03-16T00:12:31.337Z,100.00
2019-03-16T00:14:58.387Z,100.00
2019-03-16T00:17:25.480Z,100.00
2019-03-16T00:19:52.558Z,100.00
2019-03-16T00:22:19.652Z,100.00
2019-03-16T00:24:46.841Z,100.00
2019-03-16T00:27:13.970Z,100.00
2019-03-16T00:29:41.011Z,100.00
2019-03-16T00:32:13.332Z,100.00
2019-03-16T00:34:37.028Z,100.00
2019-03-16T00:37:04.081Z,100.00
2019-03-16T00:39:31.127Z,100.00
2019-03-16T00:41:58.211Z,100.00
2019-03-16T00:44:25.348Z,100.00
2019-03-16T00:46:52.423Z,100.00
2019-03-16T00:49:19.519Z,100.00
2019-03-16T00:51:46.559Z,100.00
2019-03-16T00:54:13.653Z,100.00
2019-03-16T00:56:40.731Z,100.00
2019-03-16T00:59:07.786Z,100.00
2019-03-16T01:01:34.820Z,100.00
2019-03-16T01:04:01.897Z,100.00
2019-03-16T01:06:28.990Z,100.00
2019-03-16T01:08:56.020Z,100.00
2019-03-16T01:11:23.081Z,100.00
2019-03-16T01:13:50.130Z,100.00
2019-03-16T01:16:17.256Z,100.00
2019-03-16T01:18:44.304Z,100.00
2019-03-16T01:21:11.365Z,100.00
2019-03-16T01:23:38.437Z,100.00
2019-03-16T01:26:05.485Z,100.00
2019-03-16T01:28:32.522Z,100.00
2019-03-16T01:30:59.606Z,100.00
2019-03-16T01:33:26.656Z,100.00
2019-03-16T01:35:53.684Z,100.00
2019-03-16T01:38:20.756Z,100.00
2019-03-16T01:40:47.790Z,100.00
2019-03-16T01:43:15.033Z,100.00
2019-03-16T01:45:42.168Z,100.00
2019-03-16T01:48:09.231Z,100.00
2019-03-16T01:50:36.273Z,100.00
2019-03-16T01:53:03.345Z,100.00
2019-03-16T01:55:30.528Z,100.00
2019-03-16T01:57:57.578Z,100.00
2019-03-16T02:00:24.646Z,100.00
2019-03-16T02:02:55.429Z,100.00
2019-03-16T02:05:20.744Z,100.00
2019-03-16T02:07:48.317Z,100.00
2019-03-16T02:10:15.375Z,100.00
2019-03-16T02:12:42.420Z,100.00
2019-03-16T02:15:09.626Z,100.00
2019-03-16T02:17:36.694Z,100.00
2019-03-16T02:20:04.348Z,100.00
2019-03-16T02:22:31.417Z,100.00
2019-03-16T02:24:58.561Z,100.00
2019-03-16T02:27:25.598Z,100.00
2019-03-16T02:29:52.671Z,100.00
2019-03-16T02:32:19.723Z,100.00
2019-03-16T02:34:46.768Z,100.00
2019-03-16T02:37:13.858Z,100.00
2019-03-16T02:39:40.899Z,100.00
2019-03-16T02:42:07.942Z,100.00
2019-03-16T02:44:35.014Z,100.00
2019-03-16T02:47:02.063Z,100.00
2019-03-16T02:49:29.157Z,100.00
2019-03-16T02:51:56.228Z,100.00
2019-03-16T02:54:23.266Z,100.00
2019-03-16T02:56:50.347Z,100.00
2019-03-16T02:59:17.417Z,100.00
2019-03-16T03:01:44.457Z,100.00
2019-03-16T03:04:11.495Z,100.00
2019-03-16T03:06:38.573Z,100.00
2019-03-16T03:09:07.487Z,100.00
2019-03-16T03:11:34.550Z,100.00
2019-03-16T03:14:01.632Z,100.00
2019-03-16T03:16:28.659Z,100.00
2019-03-16T03:18:55.695Z,100.00
2019-03-16T03:21:22.776Z,100.00
2019-03-16T03:23:49.853Z,100.00
2019-03-16T03:26:16.883Z,100.00
2019-03-16T03:28:43.954Z,100.00
2019-03-16T03:31:11.009Z,100.00
2019-03-16T03:33:59.232Z,100.00
2019-03-16T03:36:07.243Z,100.00
2019-03-16T03:38:34.296Z,100.00
2019-03-16T03:41:02.088Z,100.00
2019-03-16T03:43:29.456Z,100.00
2019-03-16T03:45:56.548Z,100.00
2019-03-16T03:48:23.584Z,100.00
2019-03-16T03:50:50.669Z,100.00
2019-03-16T03:53:17.736Z,100.00
2019-03-16T03:55:45.060Z,100.00
2019-03-16T03:58:12.161Z,100.00
2019-03-16T04:00:39.199Z,100.00
2019-03-16T04:03:06.529Z,100.00
2019-03-16T04:05:33.594Z,100.00
2019-03-16T04:08:00.631Z,100.00
2019-03-16T04:10:27.947Z,100.00
2019-03-16T04:12:55.036Z,100.00
2019-03-16T04:15:22.073Z,100.00
2019-03-16T04:17:49.116Z,100.00
2019-03-16T04:20:16.171Z,100.00
2019-03-16T04:22:43.229Z,100.00
2019-03-16T04:25:10.262Z,100.00
2019-03-16T04:27:37.355Z,100.00
2019-03-16T04:30:04.810Z,100.00
2019-03-16T04:32:31.859Z,100.00
2019-03-16T04:34:59.842Z,100.00
2019-03-16T04:37:26.903Z,100.00
2019-03-16T04:39:53.946Z,100.00
2019-03-16T04:42:21.009Z,100.00
2019-03-16T04:44:48.156Z,100.00
2019-03-16T04:47:15.287Z,100.00
2019-03-16T04:49:45.373Z,100.00
2019-03-16T04:52:12.479Z,100.00
2019-03-16T04:54:39.528Z,100.00
2019-03-16T04:57:06.586Z,100.00
2019-03-16T04:59:33.753Z,100.00
2019-03-16T05:02:00.801Z,100.00
2019-03-16T05:04:27.847Z,100.00
2019-03-16T05:06:55.141Z,100.00
2019-03-16T05:09:22.185Z,100.00
2019-03-16T05:11:49.225Z,100.00
2019-03-16T05:14:16.308Z,100.00
2019-03-16T05:16:43.337Z,100.00
2019-03-16T05:19:10.374Z,100.00
2019-03-16T05:21:37.462Z,100.00
2019-03-16T05:24:04.504Z,100.00
2019-03-16T05:26:31.540Z,100.00
2019-03-16T05:28:58.621Z,100.00
2019-03-16T05:31:25.665Z,100.00
2019-03-16T05:33:52.704Z,100.00
2019-03-16T05:36:19.767Z,100.00
2019-03-16T05:38:46.851Z,100.00
2019-03-16T05:41:13.887Z,100.00
2019-03-16T05:43:40.923Z,100.00
2019-03-16T05:46:08.029Z,100.00
2019-03-16T05:48:35.061Z,100.00
2019-03-16T05:51:02.109Z,100.00
2019-03-16T05:53:29.218Z,100.00
2019-03-16T05:55:56.277Z,100.00
2019-03-16T05:58:23.332Z,100.00
2019-03-16T06:00:50.420Z,100.00
2019-03-16T06:03:17.498Z,100.00
2019-03-16T06:05:44.532Z,100.00
2019-03-16T06:08:11.570Z,100.00
2019-03-16T06:10:39.054Z,100.00
2019-03-16T06:13:06.118Z,100.00
2019-03-16T06:15:33.162Z,100.00
2019-03-16T06:18:00.278Z,100.00
2019-03-16T06:20:27.318Z,100.00
2019-03-16T06:22:54.364Z,100.00
2019-03-16T06:25:21.440Z,100.00
2019-03-16T06:27:48.504Z,100.00
2019-03-16T06:30:15.543Z,100.00
2019-03-16T06:32:42.628Z,100.00
2019-03-16T06:35:23.349Z,100.00
2019-03-16T06:37:38.623Z,100.00
2019-03-16T06:40:06.024Z,100.00
2019-03-16T06:42:33.099Z,100.00
2019-03-16T06:45:00.364Z,100.00
2019-03-16T06:47:27.574Z,100.00
2019-03-16T06:49:54.683Z,100.00
2019-03-16T06:52:21.830Z,100.00
2019-03-16T06:54:48.888Z,100.00
2019-03-16T06:57:16.035Z,100.00
2019-03-16T06:59:43.133Z,100.00
2019-03-16T07:02:10.187Z,100.00
2019-03-16T07:04:37.261Z,100.00
2019-03-16T07:07:05.227Z,100.00
2019-03-16T07:09:32.277Z,100.00
2019-03-16T07:11:59.337Z,100.00
2019-03-16T07:14:26.419Z,100.00
2019-03-16T07:17:02.098Z,100.00
2019-03-16T07:19:22.512Z,100.00
2019-03-16T07:21:49.608Z,100.00
2019-03-16T07:24:16.700Z,100.00
2019-03-16T07:26:43.826Z,100.00
2019-03-16T07:29:10.925Z,100.00
2019-03-16T07:31:38.004Z,100.00
2019-03-16T07:34:05.046Z,100.00
2019-03-16T07:36:32.176Z,100.00
2019-03-16T07:38:59.230Z,100.00
2019-03-16T07:41:26.265Z,100.00
2019-03-16T07:43:53.385Z,100.00
2019-03-16T07:46:20.497Z,100.00
2019-03-16T07:48:47.567Z,100.00
2019-03-16T07:51:14.684Z,100.00
2019-03-16T07:53:41.761Z,100.00
2019-03-16T07:56:08.840Z,100.00
2019-03-16T07:58:35.926Z,100.00
2019-03-16T08:01:03.607Z,100.00
2019-03-16T08:03:30.770Z,100.00
2019-03-16T08:05:57.897Z,100.00
2019-03-16T08:08:24.966Z,100.00
2019-03-16T08:10:52.037Z,100.00
2019-03-16T08:13:19.164Z,100.00
2019-03-16T08:15:46.203Z,100.00
2019-03-16T08:18:13.253Z,100.00
2019-03-16T08:20:40.572Z,100.00
2019-03-16T08:23:07.616Z,100.00
2019-03-16T08:25:34.682Z,100.00
2019-03-16T08:28:01.790Z,100.00
2019-03-16T08:30:28.866Z,100.00
2019-03-16T08:32:57.443Z,100.00
2019-03-16T08:35:24.586Z,100.00
2019-03-16T08:37:51.635Z,100.00
2019-03-16T08:40:18.694Z,100.00
2019-03-16T08:42:45.776Z,100.00
2019-03-16T08:45:12.820Z,100.00
2019-03-16T08:47:39.910Z,100.00
2019-03-16T08:50:07.035Z,100.00
2019-03-16T08:52:34.073Z,100.00
2019-03-16T08:55:01.112Z,100.00
2019-03-16T08:57:28.217Z,100.00
2019-03-16T08:59:55.278Z,100.00
2019-03-16T09:02:22.769Z,100.00
2019-03-16T09:04:49.855Z,100.00
2019-03-16T09:07:16.925Z,100.00
2019-03-16T09:09:43.988Z,100.00
2019-03-16T09:12:11.199Z,100.00
2019-03-16T09:14:38.250Z,100.00
2019-03-16T09:17:05.310Z,100.00
2019-03-16T09:19:32.412Z,100.00
2019-03-16T09:21:59.461Z,100.00
2019-03-16T09:24:26.564Z,100.00
2019-03-16T09:26:53.692Z,100.00
2019-03-16T09:29:20.781Z,100.00
2019-03-16T09:31:47.967Z,100.00
2019-03-16T09:34:15.089Z,100.00
2019-03-16T09:36:42.282Z,100.00
2019-03-16T09:39:09.367Z,100.00
2019-03-16T09:41:36.520Z,100.00
2019-03-16T09:44:04.025Z,100.00
2019-03-16T09:46:31.259Z,100.00
2019-03-16T09:48:58.330Z,100.00
2019-03-16T09:51:25.409Z,100.00
2019-03-16T09:57:24.039Z,100.00
2019-03-16T09:59:51.098Z,100.00
2019-03-16T10:02:18.496Z,100.00
2019-03-16T10:04:45.596Z,100.00
2019-03-16T10:07:12.644Z,100.00
2019-03-16T10:09:39.747Z,100.00
2019-03-16T10:12:06.781Z,100.00
2019-03-16T10:14:37.038Z,100.00
2019-03-16T10:17:03.027Z,100.00
2019-03-16T10:19:30.108Z,100.00
2019-03-16T10:21:57.164Z,100.00
2019-03-16T10:24:24.240Z,100.00
2019-03-16T10:26:51.292Z,100.00
2019-03-16T10:29:18.368Z,100.00
2019-03-16T10:31:45.473Z,100.00
2019-03-16T10:34:12.594Z,100.00
2019-03-16T10:36:39.715Z,100.00
2019-03-16T10:39:06.800Z,100.00
2019-03-16T10:41:33.922Z,100.00
2019-03-16T10:44:00.975Z,100.00
2019-03-16T10:46:28.096Z,100.00
2019-03-16T10:48:55.419Z,100.00
2019-03-16T10:51:22.483Z,100.00
2019-03-16T10:53:49.523Z,100.00
2019-03-16T10:56:16.768Z,99.09
2019-03-16T10:58:55.749Z,98.50
2019-03-16T11:01:12.808Z,98.25
2019-03-16T11:03:40.078Z,96.32
2019-03-16T11:06:07.326Z,95.59
2019-03-16T11:08:34.462Z,95.96
2019-03-16T11:11:01.530Z,93.69
2019-03-16T11:13:28.594Z,96.03
2019-03-16T11:15:55.819Z,96.83
2019-03-16T11:18:22.895Z,97.04
2019-03-16T11:20:49.976Z,98.15
2019-03-16T11:23:17.047Z,98.21
2019-03-16T11:25:44.106Z,97.00
2019-03-16T11:28:11.174Z,97.22
2019-03-16T11:30:38.270Z,96.93
2019-03-16T11:33:05.324Z,97.16
2019-03-16T11:35:32.380Z,98.39
2019-03-16T11:37:59.442Z,97.25
2019-03-16T11:40:26.697Z,95.95
2019-03-16T11:42:53.781Z,95.60
2019-03-16T11:45:20.869Z,96.57
2019-03-16T11:47:47.959Z,97.74
2019-03-16T11:50:15.013Z,97.65
2019-03-16T11:52:42.123Z,96.91
2019-03-16T11:55:09.296Z,97.30
2019-03-16T11:57:36.343Z,97.68
2019-03-16T12:00:04.313Z,97.40
2019-03-16T12:02:31.548Z,95.04
2019-03-16T12:04:58.598Z,94.39
2019-03-16T12:07:25.630Z,94.88
2019-03-16T12:09:52.989Z,96.68
2019-03-16T12:12:20.105Z,98.14
2019-03-16T12:14:47.170Z,96.58
2019-03-16T12:17:14.279Z,95.49
2019-03-16T12:19:41.319Z,97.62
2019-03-16T12:22:08.407Z,97.68
2019-03-16T12:24:35.529Z,97.93
2019-03-16T12:27:02.596Z,98.69
2019-03-16T12:29:34.240Z,98.30
2019-03-16T12:31:58.625Z,98.88
2019-03-16T12:34:25.965Z,99.08
2019-03-16T12:36:53.000Z,99.43
2019-03-16T12:39:20.122Z,99.76
2019-03-16T12:41:47.187Z,100.00
2019-03-16T12:44:14.248Z,100.00
2019-03-16T12:46:41.358Z,100.00
2019-03-16T12:49:08.484Z,98.71
2019-03-16T12:51:35.565Z,99.11
2019-03-16T12:54:02.636Z,98.93
2019-03-16T12:56:29.714Z,99.57
2019-03-16T12:58:56.763Z,99.79
2019-03-16T13:01:23.962Z,99.77
2019-03-16T13:03:51.021Z,99.85
2019-03-16T13:06:19.247Z,99.86
2019-03-16T13:08:46.369Z,100.00
2019-03-16T13:11:13.458Z,98.97
2019-03-16T13:13:40.528Z,100.00
2019-03-16T13:16:07.669Z,98.73
2019-03-16T13:18:34.714Z,98.43
2019-03-16T13:21:01.792Z,97.85
2019-03-16T13:23:28.887Z,97.55
2019-03-16T13:25:55.917Z,95.27
2019-03-16T13:28:22.984Z,95.87
2019-03-16T13:30:50.135Z,95.89
2019-03-16T13:33:17.269Z,95.38
2019-03-16T13:35:44.357Z,94.82
2019-03-16T13:38:11.453Z,94.81
2019-03-16T13:40:38.493Z,95.07
2019-03-16T13:43:05.571Z,92.95
2019-03-16T13:45:32.674Z,92.44
2019-03-16T13:48:00.204Z,94.33
2019-03-16T13:50:27.250Z,91.97
2019-03-16T13:52:54.503Z,92.23
2019-03-16T13:55:21.603Z,91.36
2019-03-16T13:57:48.670Z,89.81
2019-03-16T14:00:16.120Z,90.69
2019-03-16T14:02:43.264Z,91.51
2019-03-16T14:05:10.358Z,90.08
2019-03-16T14:07:37.735Z,89.48
2019-03-16T14:10:06.603Z,90.47
2019-03-16T14:12:33.692Z,90.87
2019-03-16T14:15:00.780Z,92.43
2019-03-16T14:17:28.191Z,91.33
2019-03-16T14:19:55.242Z,91.07
2019-03-16T14:22:22.331Z,90.49
2019-03-16T14:24:49.555Z,90.63
2019-03-16T14:27:16.893Z,90.50
2019-03-16T14:29:44.284Z,90.93
2019-03-16T14:32:11.580Z,91.65
2019-03-16T14:34:38.632Z,92.07
2019-03-16T14:37:05.689Z,92.33
2019-03-16T14:39:32.830Z,93.01
2019-03-16T14:42:00.030Z,91.92
2019-03-16T14:44:27.111Z,91.28
2019-03-16T14:46:54.311Z,91.03
2019-03-16T14:49:21.461Z,90.94
2019-03-16T14:51:48.589Z,89.77
2019-03-16T14:54:15.667Z,89.85
2019-03-16T14:56:42.757Z,90.53
2019-03-16T14:59:09.822Z,90.78
2019-03-16T15:01:37.126Z,90.45
2019-03-16T15:04:04.195Z,90.07
2019-03-16T15:06:31.274Z,90.07
2019-03-16T15:08:58.595Z,90.41
2019-03-16T15:11:25.635Z,91.21
2019-03-16T15:13:52.775Z,91.32
2019-03-16T15:16:19.838Z,92.03
2019-03-16T15:18:46.937Z,92.79
2019-03-16T15:21:14.081Z,91.96
2019-03-16T15:23:41.143Z,91.43
2019-03-16T15:26:08.214Z,91.73
2019-03-16T15:28:35.348Z,91.78
2019-03-16T15:31:02.471Z,91.98
2019-03-16T15:33:29.587Z,91.88
2019-03-16T15:35:56.729Z,92.10
2019-03-16T15:38:23.847Z,92.94
2019-03-16T15:40:50.936Z,91.29
2019-03-16T15:43:18.041Z,91.30
2019-03-16T15:45:45.281Z,92.69
2019-03-16T15:48:12.421Z,92.74
2019-03-16T15:50:39.491Z,91.82
2019-03-16T15:53:06.616Z,92.94
2019-03-16T15:55:33.687Z,93.57
2019-03-16T15:58:08.004Z,94.14
2019-03-16T16:00:47.944Z,92.79
2019-03-16T16:03:15.038Z,93.00
2019-03-16T16:05:42.088Z,92.26
2019-03-16T16:08:09.166Z,91.47
2019-03-16T16:10:36.311Z,91.36
2019-03-16T16:13:03.418Z,90.04
2019-03-16T16:15:30.476Z,90.41
2019-03-16T16:17:57.566Z,90.06
2019-03-16T16:20:24.631Z,90.24
2019-03-16T16:22:51.729Z,90.00
2019-03-16T16:25:18.847Z,89.86
2019-03-16T16:27:46.013Z,89.44
2019-03-16T16:30:13.171Z,89.79
2019-03-16T16:32:55.351Z,90.04
2019-03-16T16:35:22.403Z,91.17
2019-03-16T16:37:49.450Z,91.31
2019-03-16T16:40:16.587Z,89.80
2019-03-16T16:42:43.679Z,88.82
2019-03-16T16:45:10.884Z,88.81
2019-03-16T16:47:38.436Z,88.58
2019-03-16T16:50:07.376Z,88.14
2019-03-16T16:52:34.458Z,89.03
2019-03-16T16:55:01.505Z,89.31
2019-03-16T16:57:28.600Z,90.25
2019-03-16T16:59:58.357Z,88.50
2019-03-16T17:02:24.587Z,87.99
2019-03-16T17:04:51.899Z,88.37
2019-03-16T17:07:18.973Z,88.91
2019-03-16T17:09:46.088Z,89.27
2019-03-16T17:12:13.212Z,88.45
2019-03-16T17:14:40.298Z,87.94
2019-03-16T17:17:07.335Z,87.41
2019-03-16T17:19:34.411Z,88.20
2019-03-16T17:22:01.473Z,88.92
2019-03-16T17:24:28.743Z,89.09
2019-03-16T17:26:55.826Z,87.87
2019-03-16T17:29:22.898Z,88.59
2019-03-16T17:31:50.154Z,89.13
2019-03-16T17:34:17.223Z,88.99
2019-03-16T17:36:44.276Z,89.69
2019-03-16T17:39:11.379Z,89.29
2019-03-16T17:41:38.465Z,89.79
2019-03-16T17:44:05.529Z,90.03
2019-03-16T17:46:32.612Z,90.74
2019-03-16T17:49:01.457Z,91.70
2019-03-16T17:51:28.530Z,91.40
2019-03-16T17:53:55.598Z,91.05
2019-03-16T17:56:22.683Z,91.45
2019-03-16T17:58:49.750Z,91.85
2019-03-16T18:01:16.948Z,91.83
2019-03-16T18:03:44.026Z,91.51
2019-03-16T18:06:11.141Z,91.94
2019-03-16T18:08:38.212Z,92.11
2019-03-16T18:11:05.510Z,92.58
2019-03-16T18:13:32.632Z,92.26
2019-03-16T18:15:59.705Z,92.35
2019-03-16T18:18:26.786Z,93.67
2019-03-16T18:20:54.321Z,93.70
2019-03-16T18:23:21.372Z,93.31
2019-03-16T18:25:48.440Z,93.90
2019-03-16T18:28:15.581Z,94.57
2019-03-16T18:30:42.726Z,94.71
2019-03-16T18:33:09.794Z,94.95
2019-03-16T18:35:36.924Z,95.08
2019-03-16T18:38:03.994Z,95.05
2019-03-16T18:40:31.072Z,95.28
2019-03-16T18:42:58.200Z,95.60
2019-03-16T18:45:25.290Z,96.10
2019-03-16T18:47:52.355Z,95.36
2019-03-16T18:50:19.496Z,95.92
2019-03-16T18:52:46.595Z,96.63
2019-03-16T18:55:13.667Z,95.88
2019-03-16T18:57:43.029Z,96.03
2019-03-16T19:00:11.010Z,95.39
2019-03-16T19:02:38.079Z,95.24
2019-03-16T19:05:05.760Z,94.90
2019-03-16T19:07:32.867Z,94.74
2019-03-16T19:09:59.982Z,95.51
2019-03-16T19:12:27.055Z,95.56
2019-03-16T19:14:54.254Z,95.51
2019-03-16T19:17:21.323Z,95.51
2019-03-16T19:19:48.482Z,95.40
2019-03-16T19:22:15.653Z,94.02
2019-03-16T19:24:42.752Z,93.74
2019-03-16T19:27:09.828Z,94.10
2019-03-16T19:29:36.977Z,93.59
2019-03-16T19:32:04.069Z,92.86
2019-03-16T19:34:31.167Z,92.76
2019-03-16T19:36:58.283Z,92.97
2019-03-16T19:39:25.401Z,93.34
2019-03-16T19:41:52.597Z,93.16
2019-03-16T19:44:19.763Z,93.22
2019-03-16T19:46:46.841Z,93.20
2019-03-16T19:49:14.030Z,93.33
2019-03-16T19:51:41.216Z,92.77
2019-03-16T19:54:08.472Z,92.32
2019-03-16T19:56:35.562Z,91.69
2019-03-16T19:59:02.805Z,91.88
2019-03-16T20:01:29.898Z,91.90
2019-03-16T20:03:57.020Z,91.11
2019-03-16T20:06:25.905Z,91.55
2019-03-16T20:08:53.175Z,91.58
2019-03-16T20:11:20.386Z,91.27
2019-03-16T20:13:47.495Z,90.90
2019-03-16T20:16:14.623Z,90.86
2019-03-16T20:18:41.956Z,91.48
2019-03-16T20:21:09.011Z,91.04
2019-03-16T20:23:36.134Z,90.83
2019-03-16T20:26:03.206Z,90.90
2019-03-16T20:28:30.398Z,90.64
2019-03-16T20:30:57.498Z,90.98
2019-03-16T20:33:24.587Z,90.59
2019-03-16T20:35:51.824Z,91.32
2019-03-16T20:38:18.954Z,90.81
2019-03-16T20:40:46.044Z,92.01
2019-03-16T20:43:13.126Z,91.98
2019-03-16T20:45:43.248Z,91.98
2019-03-16T20:48:10.289Z,91.33
2019-03-16T20:50:37.551Z,91.40
2019-03-16T20:53:04.887Z,92.08
2019-03-16T20:55:34.295Z,92.44
2019-03-16T20:58:00.978Z,91.96
2019-03-16T21:00:28.122Z,92.36
2019-03-16T21:02:55.220Z,92.44
2019-03-16T21:05:22.277Z,92.66
2019-03-16T21:07:49.393Z,93.41
2019-03-16T21:10:16.524Z,93.61
2019-03-16T21:12:43.595Z,93.84
2019-03-16T21:15:10.762Z,93.69
2019-03-16T21:17:37.977Z,94.34
2019-03-16T21:20:06.275Z,94.15
2019-03-16T21:22:38.582Z,93.89
2019-03-16T21:25:02.543Z,93.58
2019-03-16T21:27:29.632Z,93.91
2019-03-16T21:29:57.797Z,93.72
2019-03-16T21:32:24.871Z,94.01
2019-03-16T21:34:51.964Z,93.90
2019-03-16T21:37:19.091Z,93.66
2019-03-16T21:39:46.502Z,94.12
2019-03-16T21:42:13.608Z,94.10
2019-03-16T21:44:40.795Z,94.24
2019-03-16T21:47:08.142Z,94.29
2019-03-16T21:49:35.224Z,94.68
2019-03-16T21:52:02.979Z,93.85
2019-03-16T21:54:30.187Z,94.07
2019-03-16T21:56:57.252Z,93.21
2019-03-16T21:59:26.399Z,93.88
2019-03-16T22:01:53.398Z,93.69
2019-03-16T22:04:20.717Z,93.94
2019-03-16T22:06:47.870Z,94.14
2019-03-16T22:09:15.007Z,94.11
2019-03-16T22:11:42.149Z,93.90
2019-03-16T22:14:09.214Z,94.37
2019-03-16T22:16:36.358Z,93.87
2019-03-16T22:19:03.473Z,94.30
2019-03-16T22:21:30.594Z,94.22
2019-03-16T22:23:57.732Z,94.80
2019-03-16T22:26:24.828Z,94.91
2019-03-16T22:28:51.894Z,94.19
2019-03-16T22:31:19.013Z,94.34
2019-03-16T22:33:54.387Z,94.58
2019-03-16T22:36:15.049Z,94.43
2019-03-16T22:38:42.121Z,94.87
2019-03-16T22:41:09.343Z,94.83
2019-03-16T22:43:36.416Z,94.59
2019-03-16T22:46:03.524Z,94.12
2019-03-16T22:48:30.645Z,93.80
2019-03-16T22:50:57.843Z,93.68
2019-03-16T22:53:24.910Z,94.78
2019-03-16T22:55:52.038Z,94.16
2019-03-16T22:58:19.451Z,94.53
2019-03-16T23:00:48.653Z,92.94
2019-03-16T23:03:16.157Z,93.16
2019-03-16T23:05:43.281Z,92.88
2019-03-16T23:08:10.450Z,93.19
2019-03-16T23:10:37.547Z,93.58
2019-03-16T23:13:04.656Z,93.49
2019-03-16T23:15:31.776Z,94.05
2019-03-16T23:18:00.390Z,93.82
2019-03-16T23:20:27.466Z,93.63
2019-03-16T23:22:54.604Z,93.67
2019-03-16T23:25:21.922Z,93.08
2019-03-16T23:27:49.006Z,93.03
2019-03-16T23:30:16.086Z,92.68
2019-03-16T23:32:43.198Z,92.57
2019-03-16T23:35:10.300Z,92.56
2019-03-16T23:37:37.423Z,91.62
2019-03-16T23:40:04.709Z,90.93
2019-03-16T23:42:31.844Z,91.42
2019-03-16T23:44:59.160Z,91.75
2019-03-16T23:47:26.284Z,91.40
2019-03-16T23:49:53.386Z,90.31
2019-03-16T23:52:20.503Z,89.73
2019-03-16T23:54:47.600Z,90.44
2019-03-16T23:57:14.753Z,91.38
2019-03-16T23:59:41.979Z,91.27
